Time;durP1;ratioP1;P1;durP2;ratioP2;P2;SDS_P1;SDS_P2;PMS_P1;PMS_P2;Temp;Humidity;BMP_temperature;BMP_pressure;BME280_temperature;BME280_humidity;BME280_pressure;Samples;Min_cycle;Max_cycle;Signal;HPM_P1;HPM_P2
2023/07/14 00:01:42;;;;;;;1999.90;999.90;;;;;;;17.93;100.00;98185.97;5072254;28;20025;-74
2023/07/14 00:04:13;;;;;;;1999.90;999.90;;;;;;;18.02;100.00;98191.44;5072337;28;20489;-73
2023/07/14 00:06:40;;;;;;;1999.90;999.90;;;;;;;18.10;100.00;98196.09;5072152;28;20032;-73
2023/07/14 00:09:18;;;;;;;1999.90;999.90;;;;;;;18.16;100.00;98191.97;5072349;28;20024;-73
2023/07/14 00:11:44;;;;;;;1999.90;999.90;;;;;;;18.09;100.00;98195.28;5071094;28;20119;-75
2023/07/14 00:14:09;;;;;;;1999.90;999.90;;;;;;;18.06;100.00;98190.44;5072108;28;20615;-74
2023/07/14 00:16:34;;;;;;;1999.90;999.90;;;;;;;18.16;100.00;98200.28;5070285;28;20108;-74
2023/07/14 00:19:00;;;;;;;1999.90;999.90;;;;;;;18.10;100.00;98196.91;5071782;28;20027;-74
2023/07/14 00:21:26;;;;;;;1999.90;999.90;;;;;;;18.11;100.00;98201.28;5071548;28;20388;-73
2023/07/14 00:24:00;;;;;;;1999.90;999.90;;;;;;;18.12;100.00;98194.63;5072584;28;20174;-74
2023/07/14 00:26:26;;;;;;;1999.90;999.90;;;;;;;18.05;100.00;98188.81;5070613;28;20024;-73
2023/07/14 00:28:52;;;;;;;1999.90;999.90;;;;;;;18.00;100.00;98202.03;5071871;28;20123;-74
2023/07/14 00:31:20;;;;;;;1999.90;999.90;;;;;;;17.84;100.00;98190.75;5070341;28;20509;-74
2023/07/14 00:33:51;;;;;;;1999.90;999.90;;;;;;;17.88;100.00;98200.03;5072029;28;20081;-73
2023/07/14 00:36:17;;;;;;;1999.90;999.90;;;;;;;17.92;100.00;98208.44;5071956;28;20012;-74
2023/07/14 00:38:43;;;;;;;1999.90;999.90;;;;;;;17.88;100.00;98210.28;5077859;28;20024;-73
2023/07/14 00:41:23;;;;;;;1999.90;999.90;;;;;;;17.90;100.00;98214.31;5092617;28;20060;-73
2023/07/14 00:43:50;;;;;;;1999.90;999.90;;;;;;;17.87;100.00;98209.47;5092445;28;20035;-73
2023/07/14 00:46:25;;;;;;;1999.90;999.90;;;;;;;17.89;100.00;98222.94;5092101;28;20016;-73
2023/07/14 00:48:59;;;;;;;1999.90;999.90;;;;;;;17.97;100.00;98225.69;5092154;28;20028;-73
2023/07/14 00:51:28;;;;;;;1999.90;999.90;;;;;;;17.79;100.00;98218.66;5097219;28;20138;-72
2023/07/14 00:53:53;;;;;;;1999.90;999.90;;;;;;;17.86;100.00;98212.56;5094995;28;20032;-74
2023/07/14 00:56:44;;;;;;;1999.90;999.90;;;;;;;17.95;100.00;98222.41;5091712;28;20449;-74
2023/07/14 00:59:16;;;;;;;1999.90;999.90;;;;;;;18.02;100.00;98219.94;5091560;28;20116;-73
2023/07/14 01:02:15;;;;;;;1999.90;999.90;;;;;;;18.01;100.00;98215.53;5090112;28;20354;-73
2023/07/14 01:04:54;;;;;;;1999.90;999.90;;;;;;;17.98;100.00;98224.50;5089958;28;20035;-73
2023/07/14 01:07:26;;;;;;;1999.90;999.90;;;;;;;17.99;100.00;98225.31;5091413;28;20050;-73
2023/07/14 01:09:54;;;;;;;1999.90;999.90;;;;;;;17.94;100.00;98223.59;5091510;28;20012;-72
2023/07/14 01:12:22;;;;;;;1999.90;999.90;;;;;;;17.85;100.00;98211.78;5091607;28;20431;-73
2023/07/14 01:14:51;;;;;;;1999.90;999.90;;;;;;;17.77;100.00;98215.38;5090944;28;20527;-73
2023/07/14 01:17:18;;;;;;;1999.90;999.90;;;;;;;17.82;100.00;98211.63;5085425;28;20044;-74
2023/07/14 01:19:48;;;;;;;1999.90;999.90;;;;;;;17.86;100.00;98218.09;5088659;28;20028;-74
2023/07/14 01:22:35;;;;;;;1999.90;999.90;;;;;;;17.82;100.00;98217.97;5090833;28;20032;-75
2023/07/14 01:25:09;;;;;;;1999.90;999.90;;;;;;;17.81;100.00;98221.06;5090952;28;20101;-76
2023/07/14 01:27:35;;;;;;;1999.90;999.90;;;;;;;17.79;100.00;98212.31;5089508;28;20064;-76
2023/07/14 01:30:01;;;;;;;1999.90;999.90;;;;;;;17.80;100.00;98219.44;5088806;28;20539;-75
2023/07/14 01:32:35;;;;;;;1999.90;999.90;;;;;;;17.82;100.00;98217.16;5090957;28;20036;-76
2023/07/14 01:35:01;;;;;;;1999.90;999.90;;;;;;;17.80;100.00;98214.72;5091351;28;20024;-76
2023/07/14 01:37:26;;;;;;;1999.90;999.90;;;;;;;17.75;100.00;98206.63;5092592;28;20020;-73
2023/07/14 01:39:52;;;;;;;1999.90;999.90;;;;;;;17.82;100.00;98217.97;5093296;28;20059;-73
2023/07/14 01:42:18;;;;;;;1999.90;999.90;;;;;;;17.79;100.00;98215.88;5093299;28;20031;-75
2023/07/14 01:44:46;;;;;;;1999.90;999.90;;;;;;;17.90;100.00;98222.63;5095280;28;20081;-74
2023/07/14 01:47:12;;;;;;;1999.90;999.90;;;;;;;17.87;100.00;98219.72;5094998;28;20024;-75
2023/07/14 01:49:44;;;;;;;1999.90;999.90;;;;;;;17.80;100.00;98219.44;5093839;28;20016;-76
2023/07/14 01:52:16;;;;;;;1999.90;999.90;;;;;;;17.90;100.00;98225.41;5089758;28;20088;-73
2023/07/14 01:54:51;;;;;;;1999.90;999.90;;;;;;;17.89;100.00;98222.94;5090615;28;20035;-73
2023/07/14 01:57:19;;;;;;;;;;;;;;;17.77;100.00;98228.41;5091178;28;20024;-74
2023/07/14 01:59:51;;;;;;;1999.90;999.90;;;;;;;17.73;100.00;98224.72;5090660;28;19916;-73
2023/07/14 02:02:23;;;;;;;1999.90;999.90;;;;;;;17.76;100.00;98230.34;5090588;28;20032;-74
2023/07/14 02:04:49;;;;;;;1999.90;999.90;;;;;;;17.67;100.00;98226.84;5090495;28;20482;-73
2023/07/14 02:07:15;;;;;;;1999.90;999.90;;;;;;;17.71;100.00;98230.56;5090545;28;20115;-74
2023/07/14 02:09:41;;;;;;;1999.90;999.90;;;;;;;17.67;100.00;98231.59;5090347;28;20020;-74
2023/07/14 02:12:15;;;;;;;1999.90;999.90;;;;;;;17.60;100.00;98237.66;5090690;28;20074;-74
2023/07/14 02:15:03;;;;;;;1999.90;999.90;;;;;;;17.60;100.00;98237.66;5090497;28;20070;-75
2023/07/14 02:17:34;;;;;;;1999.90;999.90;;;;;;;17.43;100.00;98244.03;5090152;28;20048;-73
2023/07/14 02:20:10;;;;;;;1999.90;999.90;;;;;;;17.37;100.00;98231.53;5090413;28;20589;-75
2023/07/14 02:22:37;;;;;;;1999.90;999.90;;;;;;;17.48;100.00;98243.03;5090523;28;20036;-73
2023/07/14 02:25:07;;;;;;;1999.90;999.90;;;;;;;17.40;100.00;98250.25;5090252;28;20020;-73
2023/07/14 02:27:32;;;;;;;1999.90;999.90;;;;;;;17.43;100.00;98248.75;5089042;28;20026;-74
2023/07/14 02:30:09;;;;;;;1999.90;999.90;;;;;;;17.52;100.00;98257.81;5090372;28;20044;-75
2023/07/14 02:32:41;;;;;;;1999.90;999.90;;;;;;;17.34;100.00;98259.03;5090168;28;20031;-75
2023/07/14 02:35:36;;;;;;;1999.90;999.90;;;;;;;17.25;100.00;98269.34;5090410;28;20031;-75
2023/07/14 02:38:03;;;;;;;1999.90;999.90;;;;;;;17.28;100.00;98274.19;5083010;28;20039;-75
2023/07/14 02:40:50;;;;;;;1999.90;999.90;;;;;;;17.30;100.00;98272.72;5090605;28;20024;-75
2023/07/14 02:43:19;;;;;;;1999.90;999.90;;;;;;;17.41;100.00;98273.19;5094620;28;20111;-74
2023/07/14 02:45:59;;;;;;;1999.90;999.90;;;;;;;17.39;100.00;98269.91;5094223;28;20077;-75
2023/07/14 02:48:40;;;;;;;1999.90;999.90;;;;;;;17.32;100.00;98269.63;5094187;28;20063;-75
2023/07/14 02:51:05;;;;;;;1999.90;999.90;;;;;;;17.25;100.00;98264.63;5093990;28;20039;-73
2023/07/14 02:53:31;;;;;;;1999.90;999.90;;;;;;;17.25;100.00;98264.63;5094192;28;20027;-74
2023/07/14 02:55:56;;;;;;;1999.90;999.90;;;;;;;17.26;100.00;98271.75;5095970;28;20043;-74
2023/07/14 02:58:23;;;;;;;1999.90;999.90;;;;;;;17.20;100.00;98262.00;5094338;28;20024;-75
2023/07/14 03:00:49;;;;;;;1999.90;999.90;;;;;;;17.22;100.00;98265.28;5098707;28;20024;-75
2023/07/14 03:03:15;;;;;;;1999.90;999.90;;;;;;;17.16;100.00;98266.59;5099327;28;20397;-74
2023/07/14 03:05:41;;;;;;;1999.90;999.90;;;;;;;17.13;100.00;98261.75;5093756;28;20062;-74
2023/07/14 03:08:14;;;;;;;1999.90;999.90;;;;;;;17.20;100.00;98266.75;5093793;28;20024;-74
2023/07/14 03:10:41;;;;;;;1999.90;999.90;;;;;;;17.15;100.00;98270.50;5084781;28;20020;-75
2023/07/14 03:13:06;;;;;;;1999.90;999.90;;;;;;;17.03;100.00;98254.63;5089255;28;20035;-73
2023/07/14 03:15:32;;;;;;;1999.90;999.90;;;;;;;17.11;100.00;98275.88;5090651;28;20419;-75
2023/07/14 03:17:57;;;;;;;1999.90;999.90;;;;;;;17.03;100.00;98267.63;5071512;28;20389;-73
2023/07/14 03:20:22;;;;;;;1999.90;999.90;;;;;;;17.12;100.00;98266.44;5072790;28;20056;-75
2023/07/14 03:22:48;;;;;;;1999.90;999.90;;;;;;;17.15;100.00;98264.97;5071704;28;20155;-75
2023/07/14 03:25:13;;;;;;;1999.90;999.90;;;;;;;17.21;100.00;98269.19;5072823;28;20166;-75
2023/07/14 03:27:39;;;;;;;1999.90;999.90;;;;;;;17.15;100.00;98270.50;5072377;28;20039;-76
2023/07/14 03:30:05;;;;;;;1999.90;999.90;;;;;;;17.14;100.00;98263.34;5092770;28;20090;-75
2023/07/14 03:32:30;;;;;;;1999.90;999.90;;;;;;;17.11;100.00;98261.25;5091495;28;20066;-75
2023/07/14 03:34:55;;;;;;;1999.90;999.90;;;;;;;17.16;100.00;98269.38;5092768;28;20461;-75
2023/07/14 03:37:20;;;;;;;1999.90;999.90;;;;;;;17.12;100.00;98273.94;5091555;28;20020;-73
2023/07/14 03:39:46;;;;;;;1999.90;999.90;;;;;;;17.09;100.00;98269.06;5091568;28;20419;-73
2023/07/14 03:42:11;;;;;;;1999.90;999.90;;;;;;;17.04;100.00;98280.31;5092645;28;20048;-75
2023/07/14 03:44:36;;;;;;;1999.90;999.90;;;;;;;17.09;100.00;98280.13;5092507;28;20488;-75
2023/07/14 03:47:03;;;;;;;1999.90;999.90;;;;;;;17.15;100.00;98284.31;5092386;28;20024;-74
2023/07/14 03:49:29;;;;;;;1999.90;999.90;;;;;;;16.98;100.00;98281.59;5092351;28;20016;-74
2023/07/14 03:51:54;;;;;;;1999.90;999.90;;;;;;;16.92;100.00;98274.63;5091682;28;20043;-73
2023/07/14 03:54:20;;;;;;;1999.90;999.90;;;;;;;16.96;100.00;98281.94;5092321;28;20145;-75
2023/07/14 03:56:45;;;;;;;1999.90;999.90;;;;;;;16.97;100.00;98285.53;5092680;28;20027;-75
2023/07/14 03:59:13;;;;;;;1999.90;999.90;;;;;;;16.91;100.00;98282.13;5092474;28;20040;-73
2023/07/14 04:01:38;;;;;;;1999.90;999.90;;;;;;;16.84;100.00;98292.03;5092235;28;20044;-75
2023/07/14 04:04:04;;;;;;;1999.90;999.90;;;;;;;16.80;100.00;98289.13;5091848;28;20039;-74
2023/07/14 04:06:29;;;;;;;1999.90;999.90;;;;;;;16.77;100.00;98291.72;5070614;28;20068;-76
2023/07/14 04:08:59;;;;;;;1999.90;999.90;;;;;;;16.79;100.00;98295.00;5071761;28;20032;-75
2023/07/14 04:11:25;;;;;;;1999.90;999.90;;;;;;;16.77;100.00;98300.81;5071776;28;20050;-75
2023/07/14 04:13:50;;;;;;;1999.90;999.90;;;;;;;16.74;100.00;98298.72;5071100;28;20443;-73
2023/07/14 04:16:16;;;;;;;1999.90;999.90;;;;;;;16.72;100.00;98300.19;5071836;28;20091;-74
2023/07/14 04:18:41;;;;;;;1999.90;999.90;;;;;;;16.59;100.00;98302.81;5071760;28;20068;-75
2023/07/14 04:21:12;;;;;;;1999.90;999.90;;;;;;;16.47;100.00;98301.81;5071503;28;20032;-75
2023/07/14 04:23:39;;;;;;;1999.90;999.90;;;;;;;16.58;100.00;98305.88;5070176;28;20552;-75
2023/07/14 04:26:07;;;;;;;1999.90;999.90;;;;;;;16.56;100.00;98305.41;5070391;28;20052;-75
2023/07/14 04:28:33;;;;;;;1999.90;999.90;;;;;;;16.46;100.00;98309.28;5071599;28;20127;-75
2023/07/14 04:31:00;;;;;;;1999.90;999.90;;;;;;;16.53;100.00;98309.59;5070056;28;20120;-73
2023/07/14 04:33:26;;;;;;;1999.90;999.90;;;;;;;16.56;100.00;98306.22;5071641;28;20486;-75
2023/07/14 04:35:54;;;;;;;1999.90;999.90;;;;;;;16.63;100.00;98302.16;5071343;28;20029;-75
2023/07/14 04:38:20;;;;;;;1999.90;999.90;;;;;;;16.64;100.00;98295.47;5071709;28;20020;-75
2023/07/14 04:40:45;;;;;;;1999.90;999.90;;;;;;;16.69;100.00;98306.38;5074631;28;20036;-75
2023/07/14 04:43:12;;;;;;;1999.90;999.90;;;;;;;16.70;100.00;98310.72;5071511;28;20443;-75
2023/07/14 04:45:39;;;;;;;1999.90;999.90;;;;;;;16.73;100.00;98305.38;5070997;28;20115;-77
2023/07/14 04:48:06;;;;;;;1999.90;999.90;;;;;;;16.80;100.00;98300.16;5071289;28;20119;-75
2023/07/14 04:50:33;;;;;;;1999.90;999.90;;;;;;;17.06;100.00;98300.94;5070994;28;20017;-75
2023/07/14 04:52:58;;;;;;;1999.90;999.90;;;;;;;16.96;100.00;98311.53;5071115;28;20072;-74
2023/07/14 04:55:25;;;;;;;1999.90;999.90;;;;;;;16.81;100.00;98304.56;5069891;28;20028;-73
2023/07/14 04:57:50;;;;;;;1999.90;999.90;;;;;;;16.80;100.00;98313.16;5070774;28;20028;-73
2023/07/14 05:00:18;;;;;;;1999.90;999.90;;;;;;;16.73;100.00;98316.44;5070791;28;20032;-74
2023/07/14 05:02:44;;;;;;;1999.90;999.90;;;;;;;16.69;100.00;98315.47;5070810;28;20107;-74
2023/07/14 05:05:22;;;;;;;1999.90;999.90;;;;;;;16.60;100.00;98314.66;5078589;28;20115;-74
2023/07/14 05:07:48;;;;;;;1999.90;999.90;;;;;;;16.53;100.00;98315.13;5089602;28;20419;-75
2023/07/14 05:10:15;;;;;;;1999.90;999.90;;;;;;;16.53;100.00;98319.84;5096179;28;20053;-75
2023/07/14 05:12:40;;;;;;;1999.90;999.90;;;;;;;16.65;100.00;98317.25;5097384;28;20124;-74
2023/07/14 05:15:10;;;;;;;1999.90;999.90;;;;;;;16.89;100.00;98314.78;5090959;28;20245;-76
2023/07/14 05:17:39;;;;;;;1999.90;999.90;;;;;;;17.11;100.00;98319.28;5091826;28;20031;-75
2023/07/14 05:20:12;;;;;;;1999.90;999.90;;;;;;;17.25;100.00;98330.16;5091160;28;20500;-74
2023/07/14 05:22:39;;;;;;;1999.90;999.90;;;;;;;17.41;100.00;98334.03;5090865;28;20127;-74
2023/07/14 05:25:04;;;;;;;1999.90;999.90;;;;;;;17.51;100.00;98341.97;5087315;28;20030;-74
2023/07/14 05:27:33;;;;;;;1999.90;999.90;;;;;;;17.50;100.00;98348.63;5090385;28;20024;-76
2023/07/14 05:29:58;;;;;;;1999.90;999.90;;;;;;;17.61;100.00;98345.19;5090204;28;20052;-75
2023/07/14 05:32:25;;;;;;;1999.90;999.90;;;;;;;17.68;100.00;98344.69;5086426;28;20059;-76
2023/07/14 05:34:51;;;;;;;1999.90;999.90;;;;;;;17.82;100.00;98345.28;5090336;28;20101;-75
2023/07/14 05:37:18;;;;;;;1999.90;999.90;;;;;;;18.01;100.00;98345.66;5090710;28;20111;-74
2023/07/14 05:39:44;;;;;;;1999.90;999.90;;;;;;;18.07;100.00;98341.53;5090790;28;20160;-76
2023/07/14 05:42:10;;;;;;;1999.90;999.90;;;;;;;18.20;100.00;98347.97;5092263;28;20488;-76
2023/07/14 05:44:36;;;;;;;1999.90;999.90;;;;;;;18.36;100.00;98349.03;5091691;28;20055;-74
2023/07/14 05:47:04;;;;;;;1999.90;999.90;;;;;;;18.50;100.00;98349.63;5090733;28;20032;-74
2023/07/14 05:49:31;;;;;;;1999.90;999.90;;;;;;;18.68;100.00;98351.09;5094138;28;20027;-76
2023/07/14 05:51:56;;;;;;;1999.90;999.90;;;;;;;18.80;100.00;98350.34;5092521;28;20503;-82
2023/07/14 05:54:23;;;;;;;1999.90;999.90;;;;;;;18.95;100.00;98360.03;5090805;28;20024;-74
2023/07/14 05:56:50;;;;;;;1999.90;999.90;;;;;;;18.89;100.00;98350.28;5090885;28;20028;-76
2023/07/14 05:59:15;;;;;;;1999.90;999.90;;;;;;;19.12;100.00;98355.09;5089491;28;20024;-77
2023/07/14 06:01:41;;;;;;;1999.90;999.90;;;;;;;19.38;100.00;98362.34;5090648;28;20020;-76
2023/07/14 06:04:06;;;;;;;1999.90;999.90;;;;;;;19.24;100.00;98363.47;5090940;28;20081;-75
2023/07/14 06:06:32;;;;;;;1999.90;999.90;;;;;;;19.54;100.00;98366.94;5089575;28;20020;-74
2023/07/14 06:09:00;;;;;;;1999.90;999.90;;;;;;;19.57;100.00;98371.81;5089355;28;20020;-75
2023/07/14 06:11:26;;;;;;;1999.90;999.90;;;;;;;19.82;100.00;98375.44;5090594;28;20039;-75
2023/07/14 06:13:52;;;;;;;1999.90;999.90;;;;;;;20.17;100.00;98384.13;5090774;28;20497;-77
2023/07/14 06:16:20;;;;;;;1999.90;999.90;;;;;;;20.14;100.00;98385.63;5092248;28;20051;-76
2023/07/14 06:18:46;;;;;;;1999.90;999.90;;;;;;;20.19;100.00;98379.84;5094454;28;20017;-76
2023/07/14 06:21:12;;;;;;;1999.90;999.90;;;;;;;20.29;100.00;98387.75;5096350;28;20032;-76
2023/07/14 06:23:37;;;;;;;1999.90;999.90;;;;;;;20.35;100.00;98387.50;5093919;28;20032;-74
2023/07/14 06:26:02;;;;;;;1999.90;999.90;;;;;;;20.63;100.00;98382.84;5093131;28;20024;-76
2023/07/14 06:28:28;;;;;;;1999.90;999.90;;;;;;;20.62;100.00;98379.25;5094313;28;20405;-75
2023/07/14 06:31:04;;;;;;;1999.90;999.90;;;;;;;20.46;100.00;98381.13;5094929;28;20032;-74
2023/07/14 06:33:30;;;;;;;1999.90;999.90;;;;;;;20.30;100.00;98383.78;5094355;28;20498;-76
2023/07/14 06:35:58;;;;;;;1999.90;999.90;;;;;;;20.08;100.00;98386.22;5094476;28;20027;-74
2023/07/14 06:38:24;;;;;;;1999.90;999.90;;;;;;;20.01;100.00;98386.78;5094396;28;20039;-74
2023/07/14 06:40:56;;;;;;;1999.90;999.90;;;;;;;19.92;100.00;98388.88;5094523;28;20049;-73
2023/07/14 06:43:22;;;;;;;1999.90;999.90;;;;;;;19.96;100.00;98377.84;5094485;28;20039;-75
2023/07/14 06:45:48;;;;;;;1999.90;999.90;;;;;;;20.31;100.00;98379.06;5092659;28;20066;-74
2023/07/14 06:48:13;;;;;;;1999.90;999.90;;;;;;;20.65;100.00;98388.84;5092916;28;20020;-74
2023/07/14 06:50:39;;;;;;;1999.90;999.90;;;;;;;20.78;100.00;98380.13;5093942;28;20451;-74
2023/07/14 06:53:05;;;;;;;1999.90;999.90;;;;;;;21.37;100.00;98387.81;5092686;28;20024;-74
2023/07/14 06:55:30;;;;;;;1999.90;999.90;;;;;;;21.33;100.00;98379.38;5093984;28;20031;-75
2023/07/14 06:57:56;;;;;;;1999.90;999.90;;;;;;;21.12;100.00;98370.41;5092755;28;20329;-75
2023/07/14 07:00:22;;;;;;;1999.90;999.90;;;;;;;20.82;100.00;98380.25;5093758;28;20030;-74
2023/07/14 07:02:47;;;;;;;1999.90;999.90;;;;;;;20.38;100.00;98378.47;5093714;28;20028;-74
2023/07/14 07:05:12;;;;;;;1999.90;999.90;;;;;;;20.73;100.00;98383.16;5093872;28;20024;-74
2023/07/14 07:07:37;;;;;;;1999.90;999.90;;;;;;;20.79;100.00;98375.38;5093531;28;20024;-73
2023/07/14 07:10:03;;;;;;;1999.90;999.90;;;;;;;20.96;100.00;98377.88;5093751;28;20073;-74
2023/07/14 07:12:29;;;;;;;1999.90;999.90;;;;;;;21.33;100.00;98381.38;5093568;28;20036;-75
2023/07/14 07:14:54;;;;;;;1999.90;999.90;;;;;;;21.61;100.00;98390.50;5091910;28;20119;-74
2023/07/14 07:17:20;;;;;;;1999.90;999.90;;;;;;;21.56;100.00;98393.53;5094686;28;20487;-76
2023/07/14 07:19:45;;;;;;;1999.90;999.90;;;;;;;21.67;100.00;98386.28;5101514;28;20524;-78
2023/07/14 07:22:10;;;;;;;1999.90;999.90;;;;;;;21.75;100.00;98381.69;5093566;28;20540;-75
2023/07/14 07:24:36;;;;;;;1999.90;999.90;;;;;;;22.03;100.00;98388.03;5091979;28;20027;-73
2023/07/14 07:27:02;;;;;;;1999.90;999.90;;;;;;;21.77;100.00;98393.28;5092078;28;20039;-74
2023/07/14 07:29:30;;;;;;;1999.90;999.90;;;;;;;21.75;100.00;98387.25;5091768;28;20134;-73
2023/07/14 07:31:55;;;;;;;1999.90;999.90;;;;;;;21.96;100.00;98378.69;5092003;28;20397;-75
2023/07/14 07:34:21;;;;;;;1999.90;999.90;;;;;;;22.19;100.00;98380.47;5093078;28;20035;-74
2023/07/14 07:36:46;;;;;;;1999.90;999.90;;;;;;;22.13;100.00;98367.16;5091910;28;20031;-74
2023/07/14 07:39:11;;;;;;;1999.90;999.90;;;;;;;22.41;100.00;98385.38;5093210;28;20035;-73
2023/07/14 07:41:37;;;;;;;1999.90;999.90;;;;;;;22.74;100.00;98382.16;5091935;28;20476;-75
2023/07/14 07:44:02;;;;;;;1999.90;999.90;;;;;;;23.06;100.00;98379.25;5093263;28;20469;-76
2023/07/14 07:46:28;;;;;;;1999.90;999.90;;;;;;;23.33;100.00;98378.25;5092944;28;20103;-75
2023/07/14 07:48:54;;;;;;;1999.90;999.90;;;;;;;23.38;100.00;98380.72;5092961;28;20024;-75
2023/07/14 07:51:20;;;;;;;1999.90;999.90;;;;;;;23.02;100.00;98379.22;5092779;28;20103;-73
2023/07/14 07:53:47;;;;;;;1999.90;999.90;;;;;;;22.88;100.00;98362.97;5093003;28;20456;-75
2023/07/14 07:56:13;;;;;;;1999.90;999.90;;;;;;;23.07;100.00;98376.13;5091404;28;20031;-74
2023/07/14 07:58:39;;;;;;;1999.90;999.90;;;;;;;23.13;100.00;98374.66;5092764;28;20023;-75
2023/07/14 08:01:05;;;;;;;1999.90;999.90;;;;;;;23.02;100.00;98361.66;5092818;28;20085;-75
2023/07/14 08:03:32;;;;;;;1999.90;999.90;;;;;;;23.44;100.00;98387.66;5092388;28;20012;-75
2023/07/14 08:06:03;;;;;;;1999.90;999.90;;;;;;;24.43;100.00;98384.66;5097345;28;20042;-75
2023/07/14 08:08:29;;;;;;;1999.90;999.90;;;;;;;23.74;100.00;98376.66;5092626;28;21351;-75
2023/07/14 08:10:55;;;;;;;1999.90;999.90;;;;;;;25.73;100.00;98375.56;5092670;28;20063;-73
2023/07/14 08:13:20;;;;;;;1999.90;999.90;;;;;;;26.95;100.00;98379.81;5090990;28;20040;-75
2023/07/14 08:15:45;;;;;;;1999.90;999.90;;;;;;;28.21;76.89;98391.88;5093155;28;20453;-75
2023/07/14 08:18:11;;;;;;;1999.90;999.90;;;;;;;28.42;74.55;98389.88;5092335;28;20492;-72
2023/07/14 08:20:37;;;;;;;1999.90;999.90;;;;;;;28.64;69.80;98380.19;5092367;28;20016;-74
2023/07/14 08:23:10;;;;;;;1999.90;999.90;;;;;;;29.76;64.26;98389.50;5092099;28;20472;-74
2023/07/14 08:25:37;;;;;;;1999.90;999.90;;;;;;;30.32;60.44;98393.19;5092523;28;20157;-73
2023/07/14 08:28:04;;;;;;;1999.90;999.90;;;;;;;30.06;62.06;98382.47;5090909;28;20065;-76
2023/07/14 08:30:30;;;;;;;1999.90;999.90;;;;;;;31.56;56.54;98398.41;5090963;28;20028;-73
2023/07/14 08:32:56;;;;;;;1999.90;999.90;;;;;;;32.00;54.00;98399.41;5090911;28;20035;-73
2023/07/14 08:35:21;;;;;;;1999.90;999.90;;;;;;;32.53;53.36;98407.88;5091874;28;20039;-73
2023/07/14 08:37:47;;;;;;;1999.90;999.90;;;;;;;33.52;48.52;98403.19;5091841;28;20078;-74
2023/07/14 08:40:17;;;;;;;1999.90;999.90;;;;;;;31.57;53.20;98377.38;5092335;28;20100;-73
2023/07/14 08:42:58;;;;;;;1999.90;999.90;;;;;;;32.51;52.24;98393.34;5092173;28;20024;-73
2023/07/14 08:45:26;;;;;;;1999.90;999.90;;;;;;;31.34;52.74;98382.88;5091961;28;20409;-74
2023/07/14 08:48:16;;;;;;;1999.90;999.90;;;;;;;31.31;54.99;98381.72;5092066;28;20485;-74
2023/07/14 08:50:46;;;;;;;1999.90;999.90;;;;;;;32.43;51.20;98391.84;5091813;28;20396;-73
2023/07/14 08:53:20;;;;;;;1999.90;999.90;;;;;;;32.48;50.28;98384.91;5090400;28;20473;-76
2023/07/14 08:55:46;;;;;;;;;;;;;;;31.63;51.73;98381.31;5091409;28;20032;-74
2023/07/14 08:58:27;;;;;;;1999.90;999.90;;;;;;;32.04;50.24;98377.53;5092104;28;20293;-74
2023/07/14 09:00:55;;;;;;;1999.90;999.90;;;;;;;32.22;50.97;98373.19;5091671;28;20334;-73
2023/07/14 09:03:43;;;;;;;1999.90;999.90;;;;;;;31.31;53.80;98372.41;5091631;28;20028;-72
2023/07/14 09:06:13;;;;;;;1999.90;999.90;;;;;;;32.29;51.62;98373.06;5083897;28;20032;-74
2023/07/14 09:08:39;;;;;;;1999.90;999.90;;;;;;;32.15;52.10;98376.13;5091577;28;20027;-74
2023/07/14 09:11:16;;;;;;;1999.90;999.90;;;;;;;33.09;48.10;98382.59;5090249;28;20104;-75
2023/07/14 09:14:01;;;;;;;1999.90;999.90;;;;;;;33.73;47.13;98379.28;5091666;28;20467;-74
2023/07/14 09:16:33;;;;;;;1999.90;999.90;;;;;;;30.29;55.96;98365.78;5090475;28;20396;-75
2023/07/14 09:19:02;;;;;;;1999.90;999.90;;;;;;;30.30;57.12;98370.19;5091571;28;20059;-74
2023/07/14 09:21:39;;;;;;;1999.90;999.90;;;;;;;28.59;63.36;98360.91;5090316;28;20031;-72
2023/07/14 09:24:04;;;;;;;1999.90;999.90;;;;;;;28.64;65.57;98354.03;5091898;28;20024;-73
2023/07/14 09:26:33;;;;;;;1999.90;999.90;;;;;;;30.58;59.07;98360.69;5091844;28;20495;-73
2023/07/14 09:29:07;;;;;;;1999.90;999.90;;;;;;;32.38;51.32;98363.22;5099252;28;20050;-76
2023/07/14 09:31:48;;;;;;;1999.90;999.90;;;;;;;32.53;50.47;98370.22;5105891;28;20032;-73
2023/07/14 09:34:28;;;;;;;1999.90;999.90;;;;;;;29.82;57.50;98346.75;5092020;28;20086;-76
2023/07/14 09:36:54;;;;;;;1999.90;999.90;;;;;;;29.19;60.40;98337.41;5090955;28;20036;-74
2023/07/14 09:39:37;;;;;;;1999.90;999.90;;;;;;;28.85;62.63;98327.88;5089728;28;20031;-72
2023/07/14 09:42:06;;;;;;;1999.90;999.90;;;;;;;29.02;62.86;98343.91;5091334;28;20055;-72
2023/07/14 09:44:32;;;;;;;1999.90;999.90;;;;;;;29.89;60.56;98341.06;5089885;28;20024;-73
2023/07/14 09:47:00;;;;;;;1999.90;999.90;;;;;;;32.18;52.51;98346.13;5091243;28;20077;-73
2023/07/14 09:49:57;;;;;;;1999.90;999.90;;;;;;;30.80;55.59;98345.91;5095427;28;20433;-76
2023/07/14 09:52:23;;;;;;;1999.90;999.90;;;;;;;32.37;51.68;98345.41;5089363;28;20040;-75
2023/07/14 09:54:57;;;;;;;1999.90;999.90;;;;;;;32.61;50.21;98352.69;5091039;28;20392;-73
2023/07/14 09:57:27;;;;;;;1999.90;999.90;;;;;;;32.96;49.96;98356.09;5090854;28;20023;-74
2023/07/14 10:00:11;;;;;;;1999.90;999.90;;;;;;;34.10;47.26;98341.91;5091177;28;20043;-74
2023/07/14 10:02:36;;;;;;;1999.90;999.90;;;;;;;34.46;46.07;98356.00;5090815;28;20115;-74
2023/07/14 10:05:22;;;;;;;1999.90;999.90;;;;;;;34.24;46.82;98352.13;5090746;28;20106;-72
2023/07/14 10:07:47;;;;;;;1999.90;999.90;;;;;;;33.29;47.33;98352.22;5090445;28;20037;-72
2023/07/14 10:10:14;;;;;;;1999.90;999.90;;;;;;;33.46;47.95;98353.88;5090846;28;20424;-75
2023/07/14 10:12:48;;;;;;;1999.90;999.90;;;;;;;33.47;47.19;98343.31;5090471;28;20035;-72
2023/07/14 10:15:23;;;;;;;1999.90;999.90;;;;;;;32.86;49.01;98340.91;5090970;28;20024;-72
2023/07/14 10:17:53;;;;;;;1999.90;999.90;;;;;;;32.36;50.63;98332.47;5089405;28;20020;-72
2023/07/14 10:20:21;;;;;;;1999.90;999.90;;;;;;;31.65;52.80;98319.44;5090657;28;20541;-72
2023/07/14 10:22:54;;;;;;;1999.90;999.90;;;;;;;32.72;50.75;98322.13;5090327;28;20055;-73
2023/07/14 10:25:22;;;;;;;1999.90;999.90;;;;;;;32.72;50.48;98319.28;5090451;28;20518;-73
2023/07/14 10:28:03;;;;;;;1999.90;999.90;;;;;;;31.51;54.71;98299.84;5090555;28;20035;-74
2023/07/14 10:31:00;;;;;;;1999.90;999.90;;;;;;;32.67;50.64;98297.09;5091062;28;20052;-73
2023/07/14 10:33:31;;;;;;;1999.90;999.90;;;;;;;32.60;51.46;98304.97;5090534;28;20032;-73
2023/07/14 10:36:01;;;;;;;1999.90;999.90;;;;;;;30.77;53.12;98292.25;5090925;28;20498;-74
2023/07/14 10:38:35;;;;;;;1999.90;999.90;;;;;;;30.62;53.45;98294.47;5090918;28;20016;-72
2023/07/14 10:41:03;;;;;;;1999.90;999.90;;;;;;;29.53;57.71;98276.41;5094612;28;20088;-76
2023/07/14 10:43:47;;;;;;;1999.90;999.90;;;;;;;29.27;59.33;98271.34;5092250;28;20024;-75
2023/07/14 10:46:21;;;;;;;1999.90;999.90;;;;;;;28.24;66.13;98268.03;5093771;28;20032;-76
2023/07/14 10:48:54;;;;;;;1999.90;999.90;;;;;;;26.75;72.76;98254.94;5093004;28;20025;-74
2023/07/14 10:51:20;;;;;;;1999.90;999.90;;;;;;;26.82;69.09;98257.78;5090167;28;20055;-74
2023/07/14 10:53:55;;;;;;;1999.90;999.90;;;;;;;26.93;71.10;98238.97;5090236;28;20044;-72
2023/07/14 10:56:46;;;;;;;1999.90;999.90;;;;;;;27.13;69.00;98248.66;5090317;28;20024;-73
2023/07/14 10:59:29;;;;;;;1999.90;999.90;;;;;;;26.87;68.02;98234.94;5074056;28;20036;-74